createdAt,value
2022-12-06T00:00:51.801Z,101802.25
2022-12-06T00:06:01.797Z,101797.84
2022-12-06T00:27:03.396Z,101791.31
2022-12-06T00:32:06.437Z,101784.22
2022-12-06T00:37:14.748Z,101786.09
2022-12-06T00:53:02.098Z,101775.63
2022-12-06T00:58:04.914Z,101777.44
2022-12-06T01:03:08.242Z,101778.56
2022-12-06T01:13:38.177Z,101770.94
2022-12-06T01:18:44.925Z,101767.09
2022-12-06T01:23:48.883Z,101763.69
2022-12-06T01:28:58.698Z,101760.13
2022-12-06T01:34:01.956Z,101766.38
2022-12-06T01:39:04.965Z,101757.44
2022-12-06T01:44:49.045Z,101752.78
2022-12-06T01:49:58.223Z,101741.03
2022-12-06T01:55:03.050Z,101740.03
2022-12-06T02:00:13.691Z,101741.03
2022-12-06T02:05:18.139Z,101737.34
2022-12-06T02:10:22.162Z,101734.81
2022-12-06T02:26:45.731Z,101723.62
2022-12-06T02:31:59.482Z,101712.44
2022-12-06T02:37:10.562Z,101700.81
2022-12-06T02:42:20.922Z,101702.81
2022-12-06T02:52:52.963Z,101695.13
2022-12-06T03:09:20.927Z,101680.25
2022-12-06T03:14:26.658Z,101681.25
2022-12-06T03:35:37.760Z,101662.12
2022-12-06T03:40:46.102Z,101659.44
2022-12-06T03:51:18.647Z,101641.19
2022-12-06T04:07:02.551Z,101641.47
2022-12-06T04:12:06.036Z,101634.09
2022-12-06T04:17:11.916Z,101634.22
2022-12-06T04:22:21.159Z,101635.94
2022-12-06T04:27:23.870Z,101628.72
2022-12-06T04:32:27.563Z,101631.41
2022-12-06T04:48:11.713Z,101608.34
2022-12-06T04:53:14.490Z,101606.22
2022-12-06T04:58:17.613Z,101593.03
2022-12-06T05:08:49.450Z,101578.87
2022-12-06T05:13:52.236Z,101586.53
2022-12-06T05:18:55.238Z,101585.81
2022-12-06T05:24:04.390Z,101582.56
2022-12-06T05:29:08.711Z,101582.72
2022-12-06T05:34:11.779Z,101573.81
2022-12-06T05:39:20.368Z,101578.19
2022-12-06T05:44:23.112Z,101574.50
2022-12-06T05:49:26.873Z,101574.50
2022-12-06T06:10:26.659Z,101559.09
2022-12-06T06:15:30.472Z,101569.53
2022-12-06T06:20:33.787Z,101566.16
2022-12-06T06:30:57.194Z,101552.13
2022-12-06T06:41:21.083Z,101559.09
2022-12-06T06:46:24.791Z,101561.63
2022-12-06T06:51:28.364Z,101551.00
2022-12-06T06:56:38.326Z,101555.53
2022-12-06T07:01:46.929Z,101559.06
2022-12-06T07:06:49.718Z,101552.00
2022-12-06T07:11:57.884Z,101553.00
2022-12-06T07:17:01.271Z,101552.00
2022-12-06T07:22:06.120Z,101564.31
2022-12-06T07:27:14.959Z,101558.94
2022-12-06T07:37:43.005Z,101555.13
2022-12-06T07:42:45.810Z,101552.13
2022-12-06T07:47:49.597Z,101548.75
2022-12-06T07:53:01.436Z,101553.13
2022-12-06T07:58:06.967Z,101550.28
2022-12-06T08:03:10.609Z,101541.09
2022-12-06T08:08:27.988Z,101539.09
2022-12-06T08:18:53.483Z,101537.25
2022-12-06T08:23:57.008Z,101540.38
2022-12-06T08:34:26.452Z,101540.75
2022-12-06T08:44:50.668Z,101547.56
2022-12-06T08:49:55.345Z,101553.22
2022-12-06T08:54:58.318Z,101549.41
2022-12-06T09:05:24.941Z,101545.13
2022-12-06T09:10:27.710Z,101549.94
2022-12-06T09:20:54.105Z,101553.75
2022-12-06T09:25:58.081Z,101547.81
2022-12-06T09:31:01.486Z,101554.72
2022-12-06T09:42:10.828Z,101550.41
2022-12-06T09:47:34.761Z,101557.62
2022-12-06T09:52:52.674Z,101551.97
2022-12-06T09:58:08.678Z,101549.13
2022-12-06T10:03:52.563Z,101548.00
2022-12-06T10:09:23.501Z,101540.47
2022-12-06T10:14:44.285Z,101530.25
2022-12-06T10:19:59.600Z,101533.47
2022-12-06T10:30:35.333Z,101513.94
2022-12-06T10:35:45.338Z,101514.97
2022-12-06T10:46:22.623Z,101502.38
2022-12-06T10:51:37.678Z,101498.66
2022-12-06T10:56:44.453Z,101504.31
2022-12-06T11:01:57.541Z,101501.72
2022-12-06T11:07:06.835Z,101500.91
2022-12-06T11:12:30.768Z,101493.09
2022-12-06T11:34:01.274Z,101482.25
2022-12-06T11:39:05.417Z,101475.34
2022-12-06T11:44:09.938Z,101468.63
2022-12-06T11:49:29.371Z,101469.69
2022-12-06T11:54:40.552Z,101460.94
2022-12-06T12:00:11.650Z,101449.84
2022-12-06T12:10:47.964Z,101447.56
2022-12-06T12:15:53.159Z,101448.91
2022-12-06T12:26:20.338Z,101454.13
2022-12-06T12:31:26.320Z,101441.19
2022-12-06T12:41:50.335Z,101442.22
2022-12-06T12:46:58.045Z,101450.09
2022-12-06T12:52:05.393Z,101433.22
2022-12-06T12:57:20.844Z,101430.53
2022-12-06T13:02:28.231Z,101433.09
2022-12-06T13:07:34.472Z,101420.41
2022-12-06T13:18:04.386Z,101415.06
2022-12-06T13:23:12.719Z,101412.84
2022-12-06T13:28:20.593Z,101406.75
2022-12-06T13:33:32.976Z,101406.75
2022-12-06T13:38:38.304Z,101411.31
2022-12-06T13:54:47.056Z,101412.22
2022-12-06T13:59:49.922Z,101411.16
2022-12-06T14:04:52.658Z,101408.47
2022-12-06T14:10:13.943Z,101406.75
2022-12-06T14:15:20.516Z,101401.38
2022-12-06T14:25:46.486Z,101397.34
2022-12-06T14:30:50.030Z,101398.12
2022-12-06T14:35:55.891Z,101388.53
2022-12-06T14:41:07.131Z,101392.22
2022-12-06T14:46:16.353Z,101390.69
2022-12-06T14:56:39.334Z,101405.72
2022-12-06T15:01:51.859Z,101407.69
2022-12-06T15:07:03.705Z,101411.38
2022-12-06T15:12:29.350Z,101413.69
2022-12-06T15:22:51.154Z,101416.56
2022-12-06T15:27:54.051Z,101406.91
2022-12-06T15:32:56.779Z,101411.75
2022-12-06T15:38:06.131Z,101403.81
2022-12-06T15:43:24.507Z,101409.34
2022-12-06T15:48:28.682Z,101417.63
2022-12-06T15:59:05.140Z,101407.50
2022-12-06T16:09:30.712Z,101407.16
2022-12-06T16:14:33.772Z,101410.78
2022-12-06T16:30:33.290Z,101399.31
2022-12-06T16:35:36.273Z,101402.94
2022-12-06T16:40:39.056Z,101403.41
2022-12-06T16:51:12.526Z,101395.53
2022-12-06T16:56:17.366Z,101397.00
2022-12-06T17:06:49.363Z,101401.31
2022-12-06T17:11:52.386Z,101404.62
2022-12-06T17:16:56.148Z,101404.78
2022-12-06T17:27:24.087Z,101402.84
2022-12-06T17:43:00.697Z,101394.75
2022-12-06T17:48:04.151Z,101393.84
2022-12-06T17:53:07.893Z,101398.41
2022-12-06T17:58:16.015Z,101392.28
2022-12-06T18:08:38.444Z,101397.69
2022-12-06T18:19:12.493Z,101384.72
2022-12-06T18:24:22.184Z,101387.31
2022-12-06T18:29:26.757Z,101383.25
2022-12-06T18:55:48.885Z,101389.94
2022-12-06T19:00:51.873Z,101378.25
2022-12-06T19:06:02.997Z,101366.25
2022-12-06T19:16:38.063Z,101349.97
2022-12-06T19:21:41.929Z,101351.22
2022-12-06T19:26:45.436Z,101355.16
2022-12-06T19:31:54.499Z,101356.13
2022-12-06T19:36:57.473Z,101358.25
2022-12-06T19:42:00.740Z,101360.06
2022-12-06T19:47:08.832Z,101360.66
2022-12-06T19:52:15.698Z,101362.53
2022-12-06T19:57:18.532Z,101362.69
2022-12-06T20:02:28.883Z,101362.87
2022-12-06T20:07:31.816Z,101365.03
2022-12-06T20:12:34.801Z,101363.34
2022-12-06T20:17:42.881Z,101362.16
2022-12-06T20:22:45.786Z,101359.37
2022-12-06T20:27:51.582Z,101358.72
2022-12-06T20:33:00.596Z,101355.13
2022-12-06T20:38:04.274Z,101351.50
2022-12-06T20:43:07.155Z,101346.66
2022-12-06T20:48:15.335Z,101341.00
2022-12-06T20:58:39.130Z,101321.87
2022-12-06T21:03:42.202Z,101313.12
2022-12-06T21:19:23.570Z,101304.37
2022-12-06T21:35:01.840Z,101296.44
2022-12-06T21:50:47.295Z,101306.22
2022-12-06T21:55:50.095Z,101306.81
2022-12-06T22:00:53.222Z,101303.28
2022-12-06T22:06:06.341Z,101306.81
2022-12-06T22:11:13.400Z,101306.50
2022-12-06T22:16:20.394Z,101302.84
2022-12-06T22:21:32.932Z,101302.00
2022-12-06T22:26:35.726Z,101294.59
2022-12-06T22:31:38.579Z,101286.53
2022-12-06T22:36:47.887Z,101285.56
2022-12-06T22:41:50.831Z,101289.78
2022-12-06T22:46:54.077Z,101279.03
2022-12-06T22:57:32.748Z,101275.59
2022-12-06T23:02:35.511Z,101277.06
2022-12-06T23:12:57.923Z,101271.78
2022-12-06T23:23:20.116Z,101272.59
2022-12-06T23:28:22.828Z,101259.78
2022-12-06T23:33:25.727Z,101247.19
2022-12-06T23:38:37.133Z,101244.34
2022-12-06T23:43:41.132Z,101243.34
2022-12-06T23:48:47.623Z,101244.19
